createdAt,value
2023-04-18T00:00:38.549Z,1038.00
2023-04-18T00:01:38.569Z,1039.00
2023-04-18T00:02:38.809Z,1037.00
2023-04-18T00:03:38.816Z,1039.00
2023-04-18T00:04:38.699Z,1042.00
2023-04-18T00:05:38.546Z,1040.00
2023-04-18T00:06:38.540Z,1041.00
2023-04-18T00:07:38.535Z,1040.00
2023-04-18T00:08:38.528Z,1042.00
2023-04-18T00:09:38.655Z,1040.00
2023-04-18T00:10:38.558Z,1039.00
2023-04-18T00:11:38.540Z,1036.00
2023-04-18T00:12:38.548Z,1036.00
2023-04-18T00:13:38.593Z,1036.00
2023-04-18T00:14:38.537Z,1038.00
2023-04-18T00:15:38.581Z,1036.00
2023-04-18T00:16:38.583Z,1037.00
2023-04-18T00:17:38.622Z,1040.00
2023-04-18T00:18:38.534Z,1041.00
2023-04-18T00:19:38.567Z,1041.00
2023-04-18T00:20:38.619Z,1039.00
2023-04-18T00:21:38.564Z,1040.00
2023-04-18T00:22:38.572Z,1040.00
2023-04-18T00:23:38.613Z,1034.00
2023-04-18T00:24:38.611Z,1034.00
2023-04-18T00:25:38.617Z,1036.00
2023-04-18T00:26:38.622Z,1038.00
2023-04-18T00:27:38.633Z,1036.00
2023-04-18T00:28:38.621Z,1038.00
2023-04-18T00:29:38.655Z,1038.00
2023-04-18T00:30:38.691Z,1035.00
2023-04-18T00:31:38.651Z,1036.00
2023-04-18T00:32:38.806Z,1033.00
2023-04-18T00:33:38.680Z,1034.00
2023-04-18T00:34:38.700Z,1038.00
2023-04-18T00:35:38.715Z,1038.00
2023-04-18T00:36:38.709Z,1038.00
2023-04-18T00:37:38.725Z,1036.00
2023-04-18T00:38:38.747Z,1034.00
2023-04-18T00:39:38.743Z,1031.00
2023-04-18T00:40:38.851Z,1032.00
2023-04-18T00:41:38.803Z,1037.00
2023-04-18T00:42:38.817Z,1032.00
2023-04-18T00:43:38.810Z,1031.00
2023-04-18T00:44:38.789Z,1029.00
2023-04-18T00:45:38.818Z,1026.00
2023-04-18T00:46:38.894Z,1027.00
2023-04-18T00:47:38.917Z,1025.00
2023-04-18T00:48:38.842Z,1025.00
2023-04-18T00:49:38.835Z,1025.00
2023-04-18T00:50:38.842Z,1024.00
2023-04-18T00:51:38.875Z,1022.00
2023-04-18T00:52:38.873Z,1022.00
2023-04-18T00:53:38.897Z,1025.00
2023-04-18T00:54:38.950Z,1027.00
2023-04-18T00:55:38.915Z,1026.00
2023-04-18T00:56:38.915Z,1028.00
2023-04-18T00:57:38.960Z,1030.00
2023-04-18T00:58:38.945Z,1030.00
2023-04-18T00:59:38.943Z,1032.00
2023-04-18T01:00:39.003Z,1033.00
2023-04-18T01:01:39.100Z,1031.00
2023-04-18T01:02:39.088Z,1026.00
2023-04-18T01:03:39.132Z,1024.00
2023-04-18T01:04:38.977Z,1023.00
2023-04-18T01:05:38.960Z,1022.00
2023-04-18T01:06:38.983Z,1021.00
2023-04-18T01:07:38.973Z,1023.00
2023-04-18T01:08:38.991Z,1025.00
2023-04-18T01:09:38.985Z,1023.00
2023-04-18T01:10:38.975Z,1022.00
2023-04-18T01:11:38.975Z,1022.00
2023-04-18T01:12:38.999Z,1021.00
2023-04-18T01:13:39.238Z,1023.00
2023-04-18T01:14:39.026Z,1025.00
2023-04-18T01:15:39.083Z,1021.00
2023-04-18T01:16:39.018Z,1021.00
2023-04-18T01:17:39.014Z,1024.00
2023-04-18T01:18:39.001Z,1024.00
2023-04-18T01:19:39.093Z,1024.00
2023-04-18T01:20:39.065Z,1024.00
2023-04-18T01:21:39.006Z,1023.00
2023-04-18T01:22:39.036Z,1023.00
2023-04-18T01:23:39.041Z,1021.00
2023-04-18T01:24:39.013Z,1020.00
2023-04-18T01:25:39.013Z,1022.00
2023-04-18T01:26:39.060Z,1022.00
2023-04-18T01:27:39.017Z,1022.00
2023-04-18T01:28:39.024Z,1021.00
2023-04-18T01:29:39.169Z,1020.00
2023-04-18T01:30:39.017Z,1023.00
2023-04-18T01:31:39.211Z,1020.00
2023-04-18T01:32:39.137Z,1018.00
2023-04-18T01:33:39.024Z,1018.00
2023-04-18T01:34:39.049Z,1016.00
2023-04-18T01:35:39.054Z,1013.00
2023-04-18T01:36:39.135Z,1013.00
2023-04-18T01:37:39.042Z,1012.00
2023-04-18T01:38:39.010Z,1011.00
2023-04-18T01:39:38.995Z,1013.00
2023-04-18T01:40:39.053Z,1014.00
2023-04-18T01:41:39.023Z,1015.00
2023-04-18T01:42:38.988Z,1014.00
2023-04-18T01:43:39.009Z,1015.00
2023-04-18T01:44:39.026Z,1015.00
2023-04-18T01:45:39.057Z,1015.00
2023-04-18T01:46:39.047Z,1014.00
2023-04-18T01:47:39.030Z,1013.00
2023-04-18T01:48:38.982Z,1015.00
2023-04-18T01:49:38.964Z,1015.00
2023-04-18T01:50:38.984Z,1017.00
2023-04-18T01:51:38.999Z,1015.00
2023-04-18T01:52:38.973Z,1014.00
2023-04-18T01:53:38.990Z,1015.00
2023-04-18T01:54:39.049Z,1012.00
2023-04-18T01:55:39.061Z,1015.00
2023-04-18T01:56:39.049Z,1013.00
2023-04-18T01:57:39.088Z,1013.00
2023-04-18T01:58:39.130Z,1014.00
2023-04-18T01:59:39.166Z,1014.00
2023-04-18T02:00:39.313Z,1018.00
2023-04-18T02:01:39.294Z,1018.00
2023-04-18T02:02:39.439Z,1015.00
2023-04-18T02:03:39.569Z,1013.00
2023-04-18T02:04:39.420Z,1012.00
2023-04-18T02:05:39.528Z,1011.00
2023-04-18T02:06:39.570Z,1011.00
2023-04-18T02:07:39.445Z,1012.00
2023-04-18T02:08:39.452Z,1009.00
2023-04-18T02:09:39.444Z,1008.00
2023-04-18T02:10:39.454Z,1009.00
2023-04-18T02:11:39.449Z,1008.00
2023-04-18T02:12:39.439Z,1008.00
2023-04-18T02:13:39.418Z,1008.00
2023-04-18T02:14:39.434Z,1005.00
2023-04-18T02:15:39.428Z,1005.00
2023-04-18T02:16:39.435Z,1003.00
2023-04-18T02:17:39.442Z,1003.00
2023-04-18T02:18:39.418Z,1004.00
2023-04-18T02:19:39.412Z,1006.00
2023-04-18T02:20:39.431Z,1003.00
2023-04-18T02:21:39.403Z,1004.00
2023-04-18T02:22:39.435Z,1004.00
2023-04-18T02:23:39.410Z,1004.00
2023-04-18T02:24:39.396Z,1002.00
2023-04-18T02:25:39.377Z,1000.00
2023-04-18T02:26:39.375Z,1000.00
2023-04-18T02:27:39.366Z,1001.00
2023-04-18T02:28:39.377Z,1001.00
2023-04-18T02:29:39.386Z,1002.00
2023-04-18T02:30:39.362Z,1002.00
2023-04-18T02:31:39.444Z,1003.00
2023-04-18T02:32:39.397Z,1003.00
2023-04-18T02:33:39.475Z,1004.00
2023-04-18T02:34:39.430Z,1006.00
2023-04-18T02:35:39.366Z,1006.00
2023-04-18T02:36:39.358Z,1002.00
2023-04-18T02:37:39.347Z,1002.00
2023-04-18T02:38:39.360Z,1003.00
2023-04-18T02:39:39.351Z,1005.00
2023-04-18T02:40:39.352Z,1006.00
2023-04-18T02:41:39.364Z,1007.00
2023-04-18T02:42:39.340Z,1009.00
2023-04-18T02:43:39.400Z,1009.00
2023-04-18T02:44:39.326Z,1009.00
2023-04-18T02:45:39.373Z,1007.00
2023-04-18T02:46:39.341Z,1008.00
2023-04-18T02:47:51.143Z,1008.00
2023-04-18T02:48:40.365Z,1009.00
2023-04-18T02:49:39.365Z,1008.00
2023-04-18T02:50:39.345Z,1009.00
2023-04-18T02:51:39.304Z,1012.00
2023-04-18T02:52:39.314Z,1013.00
2023-04-18T02:53:39.295Z,1011.00
2023-04-18T02:54:39.265Z,1007.00
2023-04-18T02:55:39.271Z,1006.00
2023-04-18T02:56:39.274Z,1007.00
2023-04-18T02:57:39.251Z,1006.00
2023-04-18T02:58:39.273Z,1004.00
2023-04-18T02:59:39.257Z,1004.00
2023-04-18T03:00:39.341Z,1003.00
2023-04-18T03:01:39.289Z,1004.00
2023-04-18T03:02:39.321Z,1004.00
2023-04-18T03:03:39.260Z,1002.00
2023-04-18T03:04:39.250Z,1003.00
2023-04-18T03:05:39.201Z,1003.00
2023-04-18T03:06:39.231Z,1005.00
2023-04-18T03:07:39.181Z,1004.00
2023-04-18T03:08:39.209Z,1004.00
2023-04-18T03:09:39.177Z,1003.00
2023-04-18T03:10:39.210Z,1001.00
2023-04-18T03:11:39.162Z,1002.00
2023-04-18T03:12:39.138Z,1002.00
2023-04-18T03:13:39.163Z,1000.00
2023-04-18T03:14:39.261Z,1001.00
2023-04-18T03:15:39.267Z,1002.00
2023-04-18T03:16:39.359Z,998.00
2023-04-18T03:17:39.361Z,997.00
2023-04-18T03:18:39.345Z,993.00
2023-04-18T03:19:39.419Z,992.00
2023-04-18T03:20:39.432Z,994.00
2023-04-18T03:21:39.505Z,996.00
2023-04-18T03:22:39.523Z,997.00
2023-04-18T03:23:39.597Z,998.00
2023-04-18T03:24:39.672Z,999.00
2023-04-18T03:25:39.677Z,997.00
2023-04-18T03:26:39.710Z,996.00
2023-04-18T03:27:39.790Z,997.00
2023-04-18T03:28:39.787Z,998.00
2023-04-18T03:29:39.760Z,997.00
2023-04-18T03:30:39.821Z,998.00
2023-04-18T03:31:39.863Z,997.00
2023-04-18T03:32:39.864Z,996.00
2023-04-18T03:33:39.834Z,997.00
2023-04-18T03:34:39.850Z,997.00
2023-04-18T03:35:39.882Z,999.00
2023-04-18T03:36:39.879Z,997.00
2023-04-18T03:37:39.896Z,995.00
2023-04-18T03:38:39.876Z,996.00
2023-04-18T03:39:39.934Z,995.00
2023-04-18T03:40:39.956Z,997.00
2023-04-18T03:41:39.975Z,997.00
2023-04-18T03:42:39.989Z,997.00
2023-04-18T03:43:40.010Z,993.00
2023-04-18T03:44:40.009Z,992.00
2023-04-18T03:45:40.046Z,997.00
2023-04-18T03:46:40.114Z,998.00
2023-04-18T03:47:40.121Z,1000.00
2023-04-18T03:48:40.066Z,998.00
2023-04-18T03:49:40.116Z,996.00
2023-04-18T03:50:40.100Z,996.00
2023-04-18T03:51:40.123Z,995.00
2023-04-18T03:52:40.210Z,994.00
2023-04-18T03:53:40.139Z,994.00
2023-04-18T03:54:40.240Z,992.00
2023-04-18T03:55:40.239Z,992.00
2023-04-18T03:56:40.271Z,992.00
2023-04-18T03:57:41.376Z,990.00
2023-04-18T03:58:40.300Z,992.00
2023-04-18T03:59:40.346Z,993.00
2023-04-18T04:00:40.383Z,993.00
2023-04-18T04:01:40.428Z,991.00
2023-04-18T04:02:40.543Z,990.00
2023-04-18T04:03:40.555Z,990.00
2023-04-18T04:04:40.530Z,989.00
2023-04-18T04:05:40.432Z,992.00
2023-04-18T04:06:40.445Z,992.00
2023-04-18T04:07:40.566Z,993.00
2023-04-18T04:08:40.478Z,994.00
2023-04-18T04:09:40.575Z,996.00
2023-04-18T04:10:40.537Z,996.00
2023-04-18T04:11:40.584Z,995.00
2023-04-18T04:12:40.603Z,995.00
2023-04-18T04:13:40.643Z,994.00
2023-04-18T04:14:40.674Z,995.00
2023-04-18T04:15:40.707Z,995.00
2023-04-18T04:16:40.769Z,996.00
2023-04-18T04:17:40.775Z,994.00
2023-04-18T04:18:40.817Z,992.00
2023-04-18T04:19:40.834Z,990.00
2023-04-18T04:20:40.891Z,989.00
2023-04-18T04:21:40.964Z,988.00
2023-04-18T04:22:41.057Z,986.00
2023-04-18T04:23:41.116Z,982.00
2023-04-18T04:24:41.142Z,985.00
2023-04-18T04:25:41.233Z,988.00
2023-04-18T04:26:41.280Z,989.00
2023-04-18T04:27:41.337Z,989.00
2023-04-18T04:28:41.407Z,990.00
2023-04-18T04:29:41.484Z,987.00
2023-04-18T04:30:41.555Z,989.00
2023-04-18T04:31:41.626Z,991.00
2023-04-18T04:32:41.641Z,987.00
2023-04-18T04:33:41.674Z,989.00
2023-04-18T04:34:41.705Z,984.00
2023-04-18T04:35:41.684Z,986.00
2023-04-18T04:36:41.718Z,986.00
2023-04-18T04:37:41.748Z,987.00
2023-04-18T04:38:41.732Z,983.00
2023-04-18T04:39:41.767Z,980.00
2023-04-18T04:40:41.830Z,980.00
2023-04-18T04:41:41.806Z,983.00
2023-04-18T04:42:41.886Z,983.00
2023-04-18T04:43:41.886Z,982.00
2023-04-18T04:44:41.933Z,982.00
2023-04-18T04:45:42.047Z,983.00
2023-04-18T04:46:41.970Z,985.00
2023-04-18T04:47:42.092Z,985.00
2023-04-18T04:48:42.063Z,985.00
2023-04-18T04:49:42.127Z,984.00
2023-04-18T04:50:42.156Z,984.00
2023-04-18T04:51:42.176Z,983.00
2023-04-18T04:52:42.211Z,982.00
2023-04-18T04:53:42.222Z,981.00
2023-04-18T04:54:42.307Z,981.00
2023-04-18T04:55:42.347Z,976.00
2023-04-18T04:56:42.346Z,976.00
2023-04-18T04:57:42.416Z,974.00
2023-04-18T04:58:42.426Z,974.00
2023-04-18T04:59:42.478Z,975.00
2023-04-18T05:00:42.520Z,978.00
2023-04-18T05:01:42.557Z,977.00
2023-04-18T05:02:42.752Z,977.00
2023-04-18T05:03:42.935Z,975.00
2023-04-18T05:04:42.742Z,974.00
2023-04-18T05:05:42.735Z,977.00
2023-04-18T05:06:42.739Z,981.00
2023-04-18T05:07:42.833Z,981.00
2023-04-18T05:08:42.873Z,981.00
2023-04-18T05:09:42.939Z,981.00
2023-04-18T05:10:43.046Z,980.00
2023-04-18T05:11:43.062Z,979.00
2023-04-18T05:12:43.103Z,976.00
2023-04-18T05:13:43.207Z,976.00
2023-04-18T05:14:43.222Z,974.00
2023-04-18T05:15:43.318Z,971.00
2023-04-18T05:16:43.446Z,971.00
2023-04-18T05:17:43.563Z,971.00
2023-04-18T05:18:43.634Z,968.00
2023-04-18T05:19:43.534Z,966.00
2023-04-18T05:20:43.673Z,968.00
2023-04-18T05:21:43.677Z,968.00
2023-04-18T05:22:44.009Z,966.00
2023-04-18T05:23:44.001Z,967.00
2023-04-18T05:24:43.815Z,967.00
2023-04-18T05:25:43.854Z,972.00
2023-04-18T05:26:43.949Z,971.00
2023-04-18T05:27:43.971Z,969.00
2023-04-18T05:28:44.690Z,969.00
2023-04-18T05:29:44.149Z,970.00
2023-04-18T05:30:44.216Z,970.00
2023-04-18T05:31:44.231Z,970.00
2023-04-18T05:32:44.284Z,969.00
2023-04-18T05:33:44.315Z,964.00
2023-04-18T05:34:44.771Z,967.00
2023-04-18T05:35:44.616Z,973.00
2023-04-18T05:36:45.337Z,985.00
2023-04-18T05:37:44.488Z,1036.00
2023-04-18T05:38:44.433Z,1060.00
2023-04-18T05:39:45.021Z,1096.00
2023-04-18T05:40:44.663Z,1155.00
2023-04-18T05:41:44.687Z,1162.00
2023-04-18T05:42:45.516Z,1173.00
2023-04-18T05:43:51.154Z,1240.00
2023-04-18T05:44:46.074Z,1254.00
2023-04-18T05:45:44.782Z,1349.00
2023-04-18T05:46:44.729Z,1366.00
2023-04-18T05:47:44.831Z,1432.00
2023-04-18T05:48:44.721Z,1453.00
2023-04-18T05:49:45.493Z,1459.00
2023-04-18T05:50:45.217Z,1457.00
2023-04-18T05:51:45.505Z,1454.00
2023-04-18T05:52:44.698Z,1450.00
2023-04-18T05:53:45.002Z,1444.00
2023-04-18T05:54:44.699Z,1446.00
2023-04-18T05:55:44.705Z,1443.00
2023-04-18T05:56:44.762Z,1445.00
2023-04-18T05:57:44.811Z,1447.00
2023-04-18T05:58:44.777Z,1452.00
2023-04-18T05:59:44.784Z,1451.00
2023-04-18T06:00:44.801Z,1463.00
2023-04-18T06:01:44.835Z,1450.00
2023-04-18T06:02:44.974Z,1447.00
2023-04-18T06:03:45.219Z,1442.00
2023-04-18T06:04:45.372Z,1436.00
2023-04-18T06:05:45.116Z,1441.00
2023-04-18T06:06:45.235Z,1444.00
2023-04-18T06:07:45.060Z,1443.00
2023-04-18T06:08:45.521Z,1446.00
2023-04-18T06:09:45.118Z,1390.00
2023-04-18T06:10:45.133Z,1391.00
2023-04-18T06:11:45.198Z,1473.00
2023-04-18T06:12:45.223Z,1453.00
2023-04-18T06:13:45.262Z,1433.00
2023-04-18T06:14:45.316Z,1431.00
2023-04-18T06:15:45.375Z,1444.00
2023-04-18T06:16:45.356Z,1450.00
2023-04-18T06:17:45.428Z,1446.00
2023-04-18T06:18:45.409Z,1441.00
2023-04-18T06:19:45.444Z,1435.00
2023-04-18T06:20:45.443Z,1425.00
2023-04-18T06:21:45.465Z,1437.00
2023-04-18T06:22:45.506Z,1436.00
2023-04-18T06:23:45.555Z,1440.00
2023-04-18T06:24:45.640Z,1441.00
2023-04-18T06:25:45.615Z,1439.00
2023-04-18T06:26:45.663Z,1441.00
2023-04-18T06:27:45.679Z,1445.00
2023-04-18T06:28:45.706Z,1421.00
2023-04-18T06:29:45.701Z,1402.00
2023-04-18T06:30:45.732Z,1397.00
2023-04-18T06:31:45.836Z,1396.00
2023-04-18T06:32:45.888Z,1397.00
2023-04-18T06:33:45.905Z,1402.00
2023-04-18T06:34:45.988Z,1393.00
2023-04-18T06:35:45.933Z,1385.00
2023-04-18T06:36:46.013Z,1387.00
2023-04-18T06:37:46.022Z,1549.00
2023-04-18T06:38:46.554Z,1573.00
2023-04-18T06:39:46.097Z,1522.00
2023-04-18T06:40:46.541Z,1534.00
2023-04-18T06:41:47.136Z,1532.00
2023-04-18T06:42:46.221Z,1533.00
2023-04-18T06:44:01.627Z,1531.00
2023-04-18T06:44:47.275Z,1533.00
2023-04-18T06:45:46.571Z,1529.00
2023-04-18T06:46:46.246Z,1552.00
2023-04-18T06:47:46.294Z,1569.00
2023-04-18T06:48:46.258Z,1578.00
2023-04-18T06:49:46.245Z,1569.00
2023-04-18T06:50:46.514Z,1528.00
2023-04-18T06:51:46.193Z,1550.00
2023-04-18T06:52:46.207Z,1548.00
2023-04-18T06:53:46.167Z,1533.00
2023-04-18T06:54:46.193Z,1527.00
2023-04-18T06:55:46.167Z,1522.00
2023-04-18T06:56:46.198Z,1513.00
2023-04-18T06:57:46.250Z,1509.00
2023-04-18T06:58:46.290Z,1496.00
2023-04-18T06:59:46.350Z,1494.00
2023-04-18T07:00:46.552Z,1497.00
2023-04-18T07:01:46.467Z,1505.00
2023-04-18T07:02:46.788Z,1501.00
2023-04-18T07:03:46.611Z,1501.00
2023-04-18T07:04:46.794Z,1498.00
2023-04-18T07:05:47.032Z,1504.00
2023-04-18T07:06:46.619Z,1522.00
2023-04-18T07:07:46.710Z,1518.00
2023-04-18T07:08:46.661Z,1502.00
2023-04-18T07:09:46.715Z,1498.00
2023-04-18T07:10:46.763Z,1494.00
2023-04-18T07:11:46.848Z,1490.00
2023-04-18T07:12:46.841Z,1500.00
2023-04-18T07:13:46.871Z,1504.00
2023-04-18T07:14:46.933Z,1516.00
2023-04-18T07:15:46.971Z,1509.00
2023-04-18T07:16:47.037Z,1532.00
2023-04-18T07:17:47.228Z,1526.00
2023-04-18T07:18:47.057Z,1575.00
2023-04-18T07:19:47.106Z,1535.00
2023-04-18T07:20:47.195Z,1515.00
2023-04-18T07:21:47.185Z,1574.00
2023-04-18T07:22:47.211Z,1562.00
2023-04-18T07:23:47.258Z,1535.00
2023-04-18T07:24:47.247Z,1526.00
2023-04-18T07:25:47.302Z,1561.00
2023-04-18T07:26:47.348Z,1553.00
2023-04-18T07:27:47.381Z,1548.00
2023-04-18T07:28:47.380Z,1544.00
2023-04-18T07:29:47.460Z,1546.00
2023-04-18T07:30:47.468Z,1546.00
2023-04-18T07:31:47.485Z,1553.00
2023-04-18T07:32:48.554Z,1573.00
2023-04-18T07:33:48.114Z,1605.00
2023-04-18T07:34:47.515Z,1619.00
2023-04-18T07:35:47.550Z,1685.00
2023-04-18T07:36:47.652Z,1795.00
2023-04-18T07:37:47.645Z,1760.00
2023-04-18T07:38:48.061Z,1809.00
2023-04-18T07:39:47.680Z,1850.00
2023-04-18T07:40:47.631Z,1851.00
2023-04-18T07:41:47.658Z,1886.00
2023-04-18T07:42:47.670Z,1910.00
2023-04-18T07:43:47.710Z,1932.00
2023-04-18T07:44:47.715Z,1940.00
2023-04-18T07:45:47.813Z,1970.00
2023-04-18T07:46:47.817Z,1992.00
2023-04-18T07:47:47.816Z,2167.00
2023-04-18T07:48:47.739Z,2133.00
2023-04-18T07:49:47.752Z,2145.00
2023-04-18T07:50:48.048Z,2191.00
2023-04-18T07:51:47.785Z,2210.00
2023-04-18T07:52:47.925Z,2221.00
2023-04-18T07:53:47.825Z,2227.00
2023-04-18T07:54:47.810Z,2235.00
2023-04-18T07:55:48.614Z,2274.00
2023-04-18T07:56:47.832Z,2250.00
2023-04-18T07:57:47.899Z,2252.00
2023-04-18T07:58:47.850Z,2256.00
2023-04-18T07:59:48.040Z,2257.00
2023-04-18T08:00:48.164Z,2258.00
2023-04-18T08:01:47.884Z,2262.00
2023-04-18T08:02:47.932Z,2319.00
2023-04-18T08:03:48.036Z,2315.00
2023-04-18T08:04:48.008Z,2329.00
2023-04-18T08:05:47.910Z,2340.00
2023-04-18T08:06:47.907Z,2368.00
2023-04-18T08:07:47.942Z,2393.00
2023-04-18T08:08:47.915Z,2403.00
2023-04-18T08:09:47.983Z,2418.00
2023-04-18T08:10:47.984Z,2448.00
2023-04-18T08:11:47.913Z,2488.00
2023-04-18T08:12:47.890Z,2500.00
2023-04-18T08:13:47.906Z,2556.00
2023-04-18T08:14:47.958Z,2566.00
2023-04-18T08:15:48.028Z,2578.00
2023-04-18T08:16:48.163Z,2592.00
2023-04-18T08:17:48.088Z,2605.00
2023-04-18T08:18:48.170Z,2600.00
2023-04-18T08:19:48.185Z,2596.00
2023-04-18T08:20:48.098Z,2609.00
2023-04-18T08:21:48.142Z,2627.00
2023-04-18T08:23:05.186Z,2880.00
2023-04-18T08:23:49.174Z,2797.00
2023-04-18T08:25:03.232Z,1806.00
2023-04-18T08:25:49.567Z,1579.00
2023-04-18T08:26:48.170Z,1339.00
2023-04-18T08:27:48.113Z,1219.00
2023-04-18T08:28:48.117Z,1143.00
2023-04-18T08:29:48.160Z,1078.00
2023-04-18T08:30:48.622Z,1193.00
2023-04-18T08:31:49.139Z,1275.00
2023-04-18T08:32:48.145Z,1292.00
2023-04-18T08:33:48.081Z,1332.00
2023-04-18T08:34:48.556Z,1474.00
2023-04-18T08:35:48.111Z,1230.00
2023-04-18T08:36:48.080Z,1159.00
2023-04-18T08:37:48.133Z,1506.00
2023-04-18T08:38:48.117Z,1501.00
2023-04-18T08:39:48.129Z,1516.00
2023-04-18T08:40:48.728Z,1524.00
2023-04-18T08:41:48.552Z,1564.00
2023-04-18T08:42:48.232Z,1589.00
2023-04-18T08:43:48.279Z,1595.00
2023-04-18T08:44:48.288Z,1429.00
2023-04-18T08:45:48.411Z,1531.00
2023-04-18T08:46:48.571Z,1522.00
2023-04-18T08:47:48.501Z,1517.00
2023-04-18T08:48:48.630Z,1525.00
2023-04-18T08:49:48.516Z,1532.00
2023-04-18T08:50:48.529Z,1539.00
2023-04-18T08:51:48.569Z,1551.00
2023-04-18T08:52:48.567Z,1557.00
2023-04-18T08:53:48.608Z,1570.00
2023-04-18T08:54:49.131Z,1627.00
2023-04-18T08:55:48.567Z,1623.00
2023-04-18T08:56:49.065Z,1627.00
2023-04-18T08:57:48.565Z,1629.00
2023-04-18T08:58:48.574Z,1638.00
2023-04-18T08:59:50.847Z,1647.00
2023-04-18T09:00:49.080Z,1665.00
2023-04-18T09:01:48.717Z,1712.00
2023-04-18T09:02:48.794Z,1716.00
2023-04-18T09:03:48.710Z,1755.00
2023-04-18T09:04:48.699Z,1766.00
2023-04-18T09:05:48.710Z,1773.00
2023-04-18T09:06:48.699Z,1782.00
2023-04-18T09:07:48.898Z,1787.00
2023-04-18T09:08:48.763Z,1796.00
2023-04-18T09:09:48.738Z,1809.00
2023-04-18T09:10:48.737Z,1816.00
2023-04-18T09:11:48.747Z,1826.00
2023-04-18T09:12:48.729Z,1839.00
2023-04-18T09:13:48.820Z,1846.00
2023-04-18T09:14:48.723Z,1855.00
2023-04-18T09:15:48.798Z,1866.00
2023-04-18T09:16:48.862Z,1873.00
2023-04-18T09:17:48.892Z,1888.00
2023-04-18T09:18:48.939Z,1894.00
2023-04-18T09:19:48.988Z,1901.00
2023-04-18T09:20:49.645Z,1904.00
2023-04-18T09:21:49.156Z,1906.00
2023-04-18T09:22:48.993Z,1904.00
2023-04-18T09:23:48.949Z,1903.00
2023-04-18T09:24:48.951Z,1923.00
2023-04-18T09:25:48.960Z,1924.00
2023-04-18T09:26:48.918Z,1924.00
2023-04-18T09:27:48.931Z,1922.00
2023-04-18T09:28:48.956Z,1929.00
2023-04-18T09:29:48.937Z,1936.00
2023-04-18T09:30:49.005Z,1941.00
2023-04-18T09:31:48.969Z,1949.00
2023-04-18T09:32:49.024Z,1996.00
2023-04-18T09:33:48.994Z,2031.00
2023-04-18T09:34:48.999Z,1965.00
2023-04-18T09:35:49.212Z,1381.00
2023-04-18T09:36:49.166Z,936.00
2023-04-18T09:37:49.067Z,904.00
2023-04-18T09:38:49.164Z,925.00
2023-04-18T09:39:49.208Z,959.00
2023-04-18T09:40:49.225Z,977.00
2023-04-18T09:41:49.259Z,982.00
2023-04-18T09:42:49.276Z,990.00
2023-04-18T09:43:49.269Z,990.00
2023-04-18T09:44:49.365Z,996.00
2023-04-18T09:45:49.680Z,994.00
2023-04-18T09:46:49.432Z,994.00
2023-04-18T09:47:49.511Z,1012.00
2023-04-18T09:48:50.510Z,1018.00
2023-04-18T09:49:49.537Z,1027.00
2023-04-18T09:50:49.582Z,1030.00
2023-04-18T09:51:50.083Z,864.00
2023-04-18T09:52:49.686Z,815.00
2023-04-18T09:53:49.730Z,836.00
2023-04-18T09:54:49.777Z,844.00
2023-04-18T09:55:49.920Z,855.00
2023-04-18T09:56:49.916Z,868.00
2023-04-18T09:57:49.962Z,886.00
2023-04-18T09:58:50.029Z,901.00
2023-04-18T09:59:50.048Z,910.00
2023-04-18T10:00:50.277Z,920.00
2023-04-18T10:01:50.228Z,961.00
2023-04-18T10:02:50.374Z,976.00
2023-04-18T10:03:50.303Z,980.00
2023-04-18T10:04:50.329Z,988.00
2023-04-18T10:05:50.358Z,998.00
2023-04-18T10:06:50.317Z,1010.00
2023-04-18T10:07:50.401Z,1024.00
2023-04-18T10:08:50.363Z,1032.00
2023-04-18T10:09:51.109Z,1039.00
2023-04-18T10:10:50.472Z,1055.00
2023-04-18T10:11:52.110Z,1070.00
2023-04-18T10:12:50.619Z,1076.00
2023-04-18T10:13:50.581Z,1079.00
2023-04-18T10:14:50.644Z,1081.00
2023-04-18T10:15:50.669Z,1086.00
2023-04-18T10:16:50.732Z,1101.00
2023-04-18T10:18:03.594Z,1035.00
2023-04-18T10:18:51.682Z,1032.00
2023-04-18T10:19:50.642Z,1070.00
2023-04-18T10:20:50.648Z,1083.00
2023-04-18T10:21:50.710Z,1085.00
2023-04-18T10:22:50.614Z,1095.00
2023-04-18T10:23:50.635Z,1106.00
2023-04-18T10:24:50.609Z,1116.00
2023-04-18T10:25:50.627Z,1125.00
2023-04-18T10:26:50.628Z,1147.00
2023-04-18T10:27:50.574Z,1138.00
2023-04-18T10:28:50.609Z,1128.00
2023-04-18T10:29:50.722Z,1131.00
2023-04-18T10:30:50.621Z,1138.00
2023-04-18T10:31:51.240Z,1139.00
2023-04-18T10:32:50.905Z,1148.00
2023-04-18T10:34:03.096Z,1164.00
2023-04-18T10:34:51.801Z,1178.00
2023-04-18T10:35:50.782Z,1205.00
2023-04-18T10:36:50.837Z,1240.00
2023-04-18T10:37:50.769Z,1296.00
2023-04-18T10:38:50.778Z,1319.00
2023-04-18T10:39:50.735Z,1232.00
2023-04-18T10:40:50.761Z,1231.00
2023-04-18T10:41:51.270Z,1229.00
2023-04-18T10:42:50.741Z,1236.00
2023-04-18T10:43:50.715Z,1242.00
2023-04-18T10:44:50.702Z,1263.00
2023-04-18T10:45:50.697Z,1251.00
2023-04-18T10:46:50.773Z,1270.00
2023-04-18T10:47:50.970Z,1283.00
2023-04-18T10:48:50.849Z,1266.00
2023-04-18T10:49:50.820Z,1284.00
2023-04-18T10:50:50.842Z,1293.00
2023-04-18T10:51:50.873Z,1288.00
2023-04-18T10:52:50.887Z,1274.00
2023-04-18T10:53:51.001Z,1265.00
2023-04-18T10:54:50.880Z,1389.00
2023-04-18T10:55:50.964Z,1405.00
2023-04-18T10:56:50.932Z,1401.00
2023-04-18T10:57:51.001Z,1401.00
2023-04-18T10:58:51.010Z,1426.00
2023-04-18T10:59:51.033Z,1432.00
2023-04-18T11:00:51.066Z,1449.00
2023-04-18T11:01:51.046Z,1530.00
2023-04-18T11:02:51.197Z,1536.00
2023-04-18T11:03:51.114Z,1525.00
2023-04-18T11:04:51.086Z,1518.00
2023-04-18T11:05:51.052Z,1525.00
2023-04-18T11:06:51.274Z,1517.00
2023-04-18T11:07:51.089Z,1517.00
2023-04-18T11:08:51.653Z,1595.00
2023-04-18T11:09:51.080Z,1586.00
2023-04-18T11:10:51.108Z,1588.00
2023-04-18T11:11:51.117Z,1581.00
2023-04-18T11:12:51.168Z,1578.00
2023-04-18T11:13:51.121Z,1639.00
2023-04-18T11:14:51.126Z,1613.00
2023-04-18T11:15:51.123Z,1585.00
2023-04-18T11:16:51.266Z,1599.00
2023-04-18T11:17:51.185Z,1640.00
2023-04-18T11:18:51.154Z,1658.00
2023-04-18T11:19:51.184Z,1652.00
2023-04-18T11:20:51.190Z,1659.00
2023-04-18T11:21:51.672Z,1651.00
2023-04-18T11:22:51.191Z,1641.00
2023-04-18T11:23:51.168Z,1636.00
2023-04-18T11:24:51.173Z,1637.00
2023-04-18T11:25:51.169Z,1638.00
2023-04-18T11:26:51.652Z,1643.00
2023-04-18T11:27:51.187Z,1643.00
2023-04-18T11:28:51.188Z,1646.00
2023-04-18T11:29:52.137Z,1647.00
2023-04-18T11:30:51.234Z,1646.00
2023-04-18T11:31:51.251Z,1650.00
2023-04-18T11:32:51.258Z,1651.00
2023-04-18T11:33:51.214Z,1652.00
2023-04-18T11:34:51.234Z,1656.00
2023-04-18T11:35:51.242Z,1659.00
2023-04-18T11:36:51.294Z,1660.00
2023-04-18T11:37:51.347Z,1658.00
2023-04-18T11:38:51.304Z,1655.00
2023-04-18T11:39:51.328Z,1649.00
2023-04-18T11:40:51.457Z,1653.00
2023-04-18T11:41:51.391Z,1651.00
2023-04-18T11:42:51.403Z,1650.00
2023-04-18T11:43:51.464Z,1646.00
2023-04-18T11:44:51.440Z,1648.00
2023-04-18T11:45:51.505Z,1649.00
2023-04-18T11:46:51.515Z,1648.00
2023-04-18T11:47:51.573Z,1649.00
2023-04-18T11:48:51.625Z,1648.00
2023-04-18T11:49:51.670Z,1648.00
2023-04-18T11:50:51.609Z,1645.00
2023-04-18T11:51:51.643Z,1644.00
2023-04-18T11:52:51.669Z,1642.00
2023-04-18T11:53:51.763Z,1637.00
2023-04-18T11:54:51.735Z,1636.00
2023-04-18T11:55:51.784Z,1635.00
2023-04-18T11:56:51.842Z,1635.00
2023-04-18T11:57:51.843Z,1636.00
2023-04-18T11:58:51.854Z,1635.00
2023-04-18T11:59:51.838Z,1637.00
2023-04-18T12:00:51.884Z,1634.00
2023-04-18T12:01:53.114Z,1632.00
2023-04-18T12:02:52.054Z,1631.00
2023-04-18T12:03:52.148Z,1631.00
2023-04-18T12:04:52.187Z,1633.00
2023-04-18T12:05:52.116Z,1630.00
2023-04-18T12:06:52.095Z,1625.00
2023-04-18T12:07:52.046Z,1621.00
2023-04-18T12:08:53.978Z,1616.00
2023-04-18T12:09:52.169Z,1613.00
2023-04-18T12:10:52.139Z,1613.00